Weather History for Cando, ND

Change the Weather History Date:

Wednesday, November 16, 2011

  Actual Average (KDVL) Record (KDVL)
Temperature  
Mean Temperature 14 °F -  
Max Temperature 19 °F 35 °F 62 °F (2001)
Min Temperature 6 °F 20 °F -10 °F (1959)
Degree Days  
Heating Degree Days 52    
Moisture  
Dew Point 9 °F    
Average Humidity 79    
Maximum Humidity 92    
Minimum Humidity 68    
Precipitation  
Precipitation 0.00 in - - ()
Sea Level Pressure  
Sea Level Pressure 30.00 in    
Wind  
Wind Speed 15 mph (WNW)    
Max Wind Speed 24 mph    
Max Gust Speed 31 mph    
Visibility 10 miles    
Events      
Averages and records for this station are not official NWS values.
T = Trace of Precipitation, MM = Missing Value Source: NWS Daily Summary

Daily Weather History Graph

Daily Weather History Graph

Search for Another Location

Airport:

Trip Planner

Search our weather history database for the weather conditions in past years. The results will help you decide how hot, cold, wet, or windy it might be!

Date:

Astronomy

Nov. 16, 2011 Rise Set
Actual Time 7:46 AM CST 4:56 PM CST
Civil Twilight 7:11 AM CST 5:31 PM CST
Nautical Twilight 6:33 AM CST 6:09 PM CST
Astronomical Twilight 5:56 AM CST 6:46 PM CST
Moon 10:16 PM CST (11/16) 12:20 PM CST (11/16)
Length of Visible Light 10h 19m
Length of Day
9h 10m
Waning Gibbous, 70% of the Moon is Illuminated
Nov 16
Waning Gibbous
Nov 18
Last Quarter
Nov 25
New
Dec 2
First Quarter
Dec 10
Full

Hourly Weather History & Observations

Time (CST) Temp. Windchill Dew Point Humidity Pressure Visibility Wind Dir Wind Speed Gust Speed Precip Events Conditions
12:15 AM 14.0 °F 0.5 °F 8.6 °F 79% 29.86 in 10.0 mi West 11.5 mph - N/A   Clear
12:35 AM 12.2 °F -1.8 °F 6.8 °F 79% 29.86 in 10.0 mi West 11.5 mph - N/A   Clear
12:55 AM 12.2 °F -2.5 °F 6.8 °F 79% 29.87 in 10.0 mi West 12.7 mph - N/A   Clear
1:15 AM 10.4 °F -3.3 °F 6.8 °F 85% 29.87 in 10.0 mi West 10.4 mph - N/A   Clear
1:35 AM 10.4 °F -5.4 °F 6.8 °F 85% 29.87 in 10.0 mi West 13.8 mph - N/A   Clear
1:55 AM 10.4 °F -4.8 °F 6.8 °F 85% 29.87 in 10.0 mi West 12.7 mph - N/A   Clear
2:15 AM 10.4 °F -3.3 °F 6.8 °F 85% 29.88 in 9.0 mi West 10.4 mph - N/A   Clear
2:35 AM 10.4 °F -3.3 °F 6.8 °F 85% 29.89 in 10.0 mi West 10.4 mph - N/A   Clear
2:55 AM 8.6 °F -6.3 °F 6.8 °F 92% 29.90 in 10.0 mi West 11.5 mph - N/A   Clear
3:15 AM 10.4 °F -6.0 °F 6.8 °F 85% 29.89 in 10.0 mi West 15.0 mph - N/A   Clear
3:35 AM 12.2 °F -3.7 °F 8.6 °F 85% 29.90 in 10.0 mi West 15.0 mph - N/A   Scattered Clouds
3:55 AM 10.4 °F -6.0 °F 6.8 °F 85% 29.90 in 10.0 mi West 15.0 mph - N/A   Partly Cloudy
4:15 AM 10.4 °F -4.8 °F 6.8 °F 85% 29.90 in 10.0 mi West 12.7 mph - N/A   Mostly Cloudy
4:35 AM 8.6 °F -6.3 °F 6.8 °F 92% 29.91 in 10.0 mi West 11.5 mph - N/A   Mostly Cloudy
4:55 AM 14.0 °F -1.4 °F 10.4 °F 86% 29.91 in 10.0 mi WNW 15.0 mph - N/A   Overcast
5:15 AM 14.0 °F -2.0 °F 8.6 °F 79% 29.91 in 10.0 mi WNW 16.1 mph 21.9 mph N/A   Overcast
5:35 AM 14.0 °F -2.5 °F 8.6 °F 79% 29.92 in 10.0 mi WNW 17.3 mph - N/A   Overcast
6:15 AM 14.0 °F -3.0 °F 8.6 °F 79% 29.93 in 10.0 mi WNW 18.4 mph 24.2 mph N/A   Overcast
6:35 AM 14.0 °F -2.5 °F 8.6 °F 79% 29.93 in 10.0 mi WNW 17.3 mph 20.7 mph N/A   Overcast
6:55 AM 14.0 °F -3.0 °F 10.4 °F 86% 29.94 in 10.0 mi WNW 18.4 mph 23.0 mph N/A   Overcast
7:15 AM 14.0 °F -3.4 °F 10.4 °F 86% 29.94 in 10.0 mi WNW 19.6 mph 24.2 mph N/A   Overcast
7:55 AM 15.8 °F -2.3 °F 10.4 °F 79% 29.96 in 10.0 mi WNW 23.0 mph 26.5 mph N/A   Overcast
8:15 AM 15.8 °F -2.3 °F 10.4 °F 79% 29.96 in 10.0 mi WNW 23.0 mph 31.1 mph N/A   Overcast
8:35 AM 15.8 °F -2.3 °F 10.4 °F 79% 29.97 in 10.0 mi WNW 23.0 mph 27.6 mph N/A   Overcast
8:55 AM 15.8 °F -2.3 °F 10.4 °F 79% 29.99 in 10.0 mi WNW 23.0 mph 28.8 mph N/A   Overcast
9:15 AM 15.8 °F -1.1 °F 10.4 °F 79% 30.00 in 10.0 mi WNW 19.6 mph 27.6 mph N/A   Overcast
9:35 AM 14.0 °F -3.0 °F 8.6 °F 79% 30.00 in 10.0 mi WNW 18.4 mph 25.3 mph N/A   Overcast
10:15 AM 15.8 °F -1.1 °F 10.4 °F 79% 30.01 in 10.0 mi WNW 19.6 mph 25.3 mph N/A   Clear
10:35 AM 15.8 °F -1.5 °F 10.4 °F 79% 30.01 in 10.0 mi WNW 20.7 mph 26.5 mph N/A   Clear
10:55 AM 17.6 °F 0.1 °F 10.4 °F 73% 30.02 in 10.0 mi WNW 23.0 mph 27.6 mph N/A   Partly Cloudy
11:15 AM 17.6 °F 0.1 °F 10.4 °F 73% 30.03 in 10.0 mi WNW 23.0 mph 27.6 mph N/A   Scattered Clouds
11:35 AM 17.6 °F 1.3 °F 12.2 °F 79% 30.04 in 10.0 mi WNW 19.6 mph - N/A   Mostly Cloudy
11:55 AM 17.6 °F 1.3 °F 12.2 °F 79% 30.04 in 10.0 mi WNW 19.6 mph 24.2 mph N/A   Overcast
12:15 PM 19.4 °F 2.1 °F 10.4 °F 68% 30.03 in 10.0 mi WNW 24.2 mph 29.9 mph N/A   Overcast
12:35 PM 19.4 °F 4.5 °F 12.2 °F 74% 30.04 in 10.0 mi NW 17.3 mph 25.3 mph N/A   Overcast
12:55 PM 19.4 °F 3.6 °F 10.4 °F 68% 30.04 in 10.0 mi WNW 19.6 mph 27.6 mph N/A   Overcast
1:15 PM 19.4 °F 3.2 °F 10.4 °F 68% 30.04 in 10.0 mi WNW 20.7 mph 29.9 mph N/A   Mostly Cloudy
1:35 PM 19.4 °F 2.5 °F 10.4 °F 68% 30.04 in 10.0 mi WNW 23.0 mph 31.1 mph N/A   Partly Cloudy
1:55 PM 19.4 °F 2.1 °F 10.4 °F 68% 30.05 in 10.0 mi NW 24.2 mph 29.9 mph N/A   Partly Cloudy
2:15 PM 19.4 °F 2.5 °F 10.4 °F 68% 30.06 in 10.0 mi WNW 23.0 mph - N/A   Mostly Cloudy
2:35 PM 19.4 °F 3.6 °F 12.2 °F 74% 30.06 in 10.0 mi WNW 19.6 mph 25.3 mph N/A   Mostly Cloudy
2:55 PM 19.4 °F 3.2 °F 10.4 °F 68% 30.07 in 10.0 mi WNW 20.7 mph 26.5 mph N/A   Scattered Clouds
3:15 PM 19.4 °F 3.6 °F 12.2 °F 74% 30.07 in 10.0 mi WNW 19.6 mph 24.2 mph N/A   Mostly Cloudy
3:35 PM 19.4 °F 4.1 °F 12.2 °F 74% 30.08 in 10.0 mi WNW 18.4 mph 23.0 mph N/A   Partly Cloudy
3:55 PM 19.4 °F 4.1 °F 12.2 °F 74% 30.08 in 10.0 mi WNW 18.4 mph - N/A   Clear
4:15 PM 17.6 °F 2.2 °F 12.2 °F 79% 30.09 in 10.0 mi WNW 17.3 mph 23.0 mph N/A   Clear
4:35 PM 17.6 °F 2.2 °F 10.4 °F 73% 30.09 in 10.0 mi WNW 17.3 mph - N/A   Partly Cloudy
4:55 PM 17.6 °F 3.7 °F 10.4 °F 73% 30.10 in 10.0 mi West 13.8 mph - N/A   Partly Cloudy
5:15 PM 15.8 °F 2.1 °F 10.4 °F 79% 30.11 in 10.0 mi West 12.7 mph - N/A   Partly Cloudy
5:35 PM 15.8 °F 2.7 °F 8.6 °F 73% 30.11 in 10.0 mi West 11.5 mph - N/A   Mostly Cloudy
5:55 PM 14.0 °F 0.5 °F 8.6 °F 79% 30.11 in 10.0 mi West 11.5 mph - N/A   Partly Cloudy
6:15 PM 12.2 °F -1.0 °F 6.8 °F 79% 30.12 in 10.0 mi West 10.4 mph - N/A   Clear
6:35 PM 12.2 °F -0.2 °F 8.6 °F 85% 30.12 in 10.0 mi West 9.2 mph - N/A   Clear
6:55 PM 10.4 °F -2.4 °F 8.6 °F 92% 30.13 in 10.0 mi West 9.2 mph - N/A   Clear
7:15 PM 10.4 °F -2.4 °F 6.8 °F 85% 30.13 in 10.0 mi West 9.2 mph - N/A   Clear
7:35 PM 12.2 °F -1.0 °F 6.8 °F 79% 30.13 in 10.0 mi West 10.4 mph - N/A   Clear
7:55 PM 10.4 °F -2.4 °F 6.8 °F 85% 30.13 in 10.0 mi WNW 9.2 mph - N/A   Clear
8:15 PM 12.2 °F -1.0 °F 6.8 °F 79% 30.13 in 10.0 mi WNW 10.4 mph - N/A   Clear
8:55 PM 6.8 °F -7.8 °F 3.2 °F 85% 30.13 in 10.0 mi West 10.4 mph - N/A   Clear
9:15 PM 6.8 °F -7.8 °F 3.2 °F 85% 30.13 in 10.0 mi West 10.4 mph - N/A   Clear
9:35 PM 6.8 °F -6.9 °F 1.4 °F 79% 30.13 in 10.0 mi West 9.2 mph - N/A   Clear
9:55 PM 8.6 °F -6.3 °F 5.0 °F 85% 30.13 in 10.0 mi WNW 11.5 mph - N/A   Clear
10:15 PM 8.6 °F -4.7 °F 5.0 °F 85% 30.13 in 10.0 mi WNW 9.2 mph - N/A   Clear
10:35 PM 6.8 °F -5.9 °F 5.0 °F 92% 30.13 in 10.0 mi WNW 8.1 mph - N/A   Clear
10:55 PM 6.8 °F -4.8 °F 3.2 °F 85% 30.13 in 10.0 mi West 6.9 mph - N/A   Clear
11:15 PM 3.2 °F -11.3 °F -0.4 °F 85% 30.13 in 10.0 mi West 9.2 mph - N/A   Clear
11:55 PM 5.0 °F -9.1 °F -0.4 °F 78% 30.13 in 10.0 mi West 9.2 mph - N/A   Clear